sensor_id;sensor_type;location;lat;lon;timestamp;temperature;humidity
47414;DHT22;33163;0.000;0.000;2022-11-14T00:01:35;18.90;64.30
47414;DHT22;33163;0.000;0.000;2022-11-14T00:04:02;18.90;64.30
47414;DHT22;33163;0.000;0.000;2022-11-14T00:06:30;18.90;64.20
47414;DHT22;33163;0.000;0.000;2022-11-14T00:08:57;18.90;64.30
47414;DHT22;33163;0.000;0.000;2022-11-14T00:11:24;18.90;64.20
47414;DHT22;33163;0.000;0.000;2022-11-14T00:13:50;18.90;64.20
47414;DHT22;33163;0.000;0.000;2022-11-14T00:16:17;18.90;64.10
47414;DHT22;33163;0.000;0.000;2022-11-14T00:18:44;18.90;64.00
47414;DHT22;33163;0.000;0.000;2022-11-14T00:21:11;18.90;64.10
47414;DHT22;33163;0.000;0.000;2022-11-14T00:23:39;18.90;64.00
47414;DHT22;33163;0.000;0.000;2022-11-14T00:26:05;18.80;63.90
47414;DHT22;33163;0.000;0.000;2022-11-14T00:28:32;18.80;64.00
47414;DHT22;33163;0.000;0.000;2022-11-14T00:30:59;18.90;63.90
47414;DHT22;33163;0.000;0.000;2022-11-14T00:33:26;18.80;63.90
47414;DHT22;33163;0.000;0.000;2022-11-14T00:35:53;18.80;63.90
47414;DHT22;33163;0.000;0.000;2022-11-14T00:38:21;18.80;63.80
47414;DHT22;33163;0.000;0.000;2022-11-14T00:40:49;18.80;63.80
47414;DHT22;33163;0.000;0.000;2022-11-14T00:43:16;18.80;63.90
47414;DHT22;33163;0.000;0.000;2022-11-14T00:45:43;18.80;63.70
47414;DHT22;33163;0.000;0.000;2022-11-14T00:48:10;18.80;63.80
47414;DHT22;33163;0.000;0.000;2022-11-14T00:50:37;18.80;63.80
47414;DHT22;33163;0.000;0.000;2022-11-14T00:53:04;18.80;63.90
47414;DHT22;33163;0.000;0.000;2022-11-14T00:55:30;18.80;63.80
47414;DHT22;33163;0.000;0.000;2022-11-14T00:57:58;18.70;63.70
47414;DHT22;33163;0.000;0.000;2022-11-14T01:00:25;18.70;63.60
47414;DHT22;33163;0.000;0.000;2022-11-14T01:02:52;18.70;63.60
47414;DHT22;33163;0.000;0.000;2022-11-14T01:05:21;18.70;63.70
47414;DHT22;33163;0.000;0.000;2022-11-14T01:07:48;18.70;63.60
47414;DHT22;33163;0.000;0.000;2022-11-14T01:10:15;18.80;63.70
47414;DHT22;33163;0.000;0.000;2022-11-14T01:12:42;18.70;63.60
47414;DHT22;33163;0.000;0.000;2022-11-14T01:15:10;18.70;63.60
47414;DHT22;33163;0.000;0.000;2022-11-14T01:17:37;18.70;63.50
47414;DHT22;33163;0.000;0.000;2022-11-14T01:20:04;18.70;63.60
47414;DHT22;33163;0.000;0.000;2022-11-14T01:22:31;18.70;63.50
47414;DHT22;33163;0.000;0.000;2022-11-14T01:24:58;18.70;63.50
47414;DHT22;33163;0.000;0.000;2022-11-14T01:27:25;18.70;63.40
47414;DHT22;33163;0.000;0.000;2022-11-14T01:29:51;18.70;63.40
47414;DHT22;33163;0.000;0.000;2022-11-14T01:32:19;18.60;63.40
47414;DHT22;33163;0.000;0.000;2022-11-14T01:34:46;18.60;63.50
47414;DHT22;33163;0.000;0.000;2022-11-14T01:37:13;18.60;63.40
47414;DHT22;33163;0.000;0.000;2022-11-14T01:39:39;18.70;63.40
47414;DHT22;33163;0.000;0.000;2022-11-14T01:42:06;18.60;63.30
47414;DHT22;33163;0.000;0.000;2022-11-14T01:44:44;18.60;63.40
47414;DHT22;33163;0.000;0.000;2022-11-14T01:47:15;18.70;63.30
47414;DHT22;33163;0.000;0.000;2022-11-14T01:49:46;18.70;63.30
47414;DHT22;33163;0.000;0.000;2022-11-14T01:52:16;18.60;63.30
47414;DHT22;33163;0.000;0.000;2022-11-14T01:54:45;18.60;63.30
47414;DHT22;33163;0.000;0.000;2022-11-14T01:57:23;18.60;63.30
47414;DHT22;33163;0.000;0.000;2022-11-14T01:59:53;18.60;63.30
47414;DHT22;33163;0.000;0.000;2022-11-14T02:02:22;18.60;63.30
47414;DHT22;33163;0.000;0.000;2022-11-14T02:04:55;18.60;63.30
47414;DHT22;33163;0.000;0.000;2022-11-14T02:07:23;18.60;63.30
47414;DHT22;33163;0.000;0.000;2022-11-14T02:09:50;18.60;63.30
47414;DHT22;33163;0.000;0.000;2022-11-14T02:12:18;18.60;63.40
47414;DHT22;33163;0.000;0.000;2022-11-14T02:14:47;18.60;63.30
47414;DHT22;33163;0.000;0.000;2022-11-14T02:17:16;18.60;63.30
47414;DHT22;33163;0.000;0.000;2022-11-14T02:19:45;18.60;63.30
47414;DHT22;33163;0.000;0.000;2022-11-14T02:22:14;18.60;63.30
47414;DHT22;33163;0.000;0.000;2022-11-14T02:24:42;18.60;63.20
47414;DHT22;33163;0.000;0.000;2022-11-14T02:27:09;18.60;63.30
47414;DHT22;33163;0.000;0.000;2022-11-14T02:29:37;18.60;63.30
47414;DHT22;33163;0.000;0.000;2022-11-14T02:32:04;18.50;63.20
47414;DHT22;33163;0.000;0.000;2022-11-14T02:34:31;18.50;63.80
47414;DHT22;33163;0.000;0.000;2022-11-14T02:36:58;18.50;63.20
47414;DHT22;33163;0.000;0.000;2022-11-14T02:39:26;18.50;63.20
47414;DHT22;33163;0.000;0.000;2022-11-14T02:41:53;18.50;63.20
47414;DHT22;33163;0.000;0.000;2022-11-14T02:44:20;18.50;63.10
47414;DHT22;33163;0.000;0.000;2022-11-14T02:46:47;18.50;63.80
47414;DHT22;33163;0.000;0.000;2022-11-14T02:49:13;18.50;63.10
47414;DHT22;33163;0.000;0.000;2022-11-14T02:51:40;18.50;63.10
47414;DHT22;33163;0.000;0.000;2022-11-14T02:54:07;18.50;63.10
47414;DHT22;33163;0.000;0.000;2022-11-14T02:56:35;18.50;63.10
47414;DHT22;33163;0.000;0.000;2022-11-14T02:59:02;18.50;63.20
47414;DHT22;33163;0.000;0.000;2022-11-14T03:01:29;18.40;63.10
47414;DHT22;33163;0.000;0.000;2022-11-14T03:03:55;18.40;63.00
47414;DHT22;33163;0.000;0.000;2022-11-14T03:06:22;18.40;63.00
47414;DHT22;33163;0.000;0.000;2022-11-14T03:08:49;18.40;63.00
47414;DHT22;33163;0.000;0.000;2022-11-14T03:11:15;18.40;63.00
47414;DHT22;33163;0.000;0.000;2022-11-14T03:13:44;18.40;63.00
47414;DHT22;33163;0.000;0.000;2022-11-14T03:16:11;18.40;62.90
47414;DHT22;33163;0.000;0.000;2022-11-14T03:18:39;18.40;62.80
47414;DHT22;33163;0.000;0.000;2022-11-14T03:21:07;18.40;62.90
47414;DHT22;33163;0.000;0.000;2022-11-14T03:23:34;18.40;62.90
47414;DHT22;33163;0.000;0.000;2022-11-14T03:26:01;18.40;62.90
47414;DHT22;33163;0.000;0.000;2022-11-14T03:28:28;18.40;62.80
47414;DHT22;33163;0.000;0.000;2022-11-14T03:30:56;18.40;62.80
47414;DHT22;33163;0.000;0.000;2022-11-14T03:33:23;18.40;62.80
47414;DHT22;33163;0.000;0.000;2022-11-14T03:35:50;18.40;62.80
47414;DHT22;33163;0.000;0.000;2022-11-14T03:38:17;18.40;62.70
47414;DHT22;33163;0.000;0.000;2022-11-14T03:40:47;18.40;62.80
47414;DHT22;33163;0.000;0.000;2022-11-14T03:43:14;18.40;63.40
47414;DHT22;33163;0.000;0.000;2022-11-14T03:45:41;18.40;62.70
47414;DHT22;33163;0.000;0.000;2022-11-14T03:48:09;18.40;62.60
47414;DHT22;33163;0.000;0.000;2022-11-14T03:50:36;18.40;62.70
47414;DHT22;33163;0.000;0.000;2022-11-14T03:53:03;18.30;62.60
47414;DHT22;33163;0.000;0.000;2022-11-14T03:55:30;18.30;62.50
47414;DHT22;33163;0.000;0.000;2022-11-14T03:57:57;18.30;62.50
47414;DHT22;33163;0.000;0.000;2022-11-14T04:00:24;18.30;62.50
47414;DHT22;33163;0.000;0.000;2022-11-14T04:02:53;18.30;62.50
47414;DHT22;33163;0.000;0.000;2022-11-14T04:05:21;18.30;62.50
47414;DHT22;33163;0.000;0.000;2022-11-14T04:07:48;18.30;62.50
47414;DHT22;33163;0.000;0.000;2022-11-14T04:10:15;18.30;62.50
47414;DHT22;33163;0.000;0.000;2022-11-14T04:12:46;18.30;63.10
47414;DHT22;33163;0.000;0.000;2022-11-14T04:15:14;18.30;62.50
47414;DHT22;33163;0.000;0.000;2022-11-14T04:17:41;18.30;62.50
47414;DHT22;33163;0.000;0.000;2022-11-14T04:20:09;18.30;62.50
47414;DHT22;33163;0.000;0.000;2022-11-14T04:22:38;18.30;62.40
47414;DHT22;33163;0.000;0.000;2022-11-14T04:25:05;18.20;62.40
47414;DHT22;33163;0.000;0.000;2022-11-14T04:27:33;18.20;62.40
47414;DHT22;33163;0.000;0.000;2022-11-14T04:30:00;18.30;62.30
47414;DHT22;33163;0.000;0.000;2022-11-14T04:32:26;18.20;62.30
47414;DHT22;33163;0.000;0.000;2022-11-14T04:34:53;18.20;62.30
47414;DHT22;33163;0.000;0.000;2022-11-14T04:37:20;18.20;62.40
47414;DHT22;33163;0.000;0.000;2022-11-14T04:39:48;18.20;62.10
47414;DHT22;33163;0.000;0.000;2022-11-14T04:42:15;18.20;62.30
47414;DHT22;33163;0.000;0.000;2022-11-14T04:44:42;18.20;62.20
47414;DHT22;33163;0.000;0.000;2022-11-14T04:47:09;18.20;62.30
47414;DHT22;33163;0.000;0.000;2022-11-14T04:49:35;18.20;62.20
47414;DHT22;33163;0.000;0.000;2022-11-14T04:52:02;18.20;62.10
47414;DHT22;33163;0.000;0.000;2022-11-14T04:54:29;18.20;62.30
47414;DHT22;33163;0.000;0.000;2022-11-14T04:56:57;18.20;62.30
47414;DHT22;33163;0.000;0.000;2022-11-14T04:59:24;18.20;62.20
47414;DHT22;33163;0.000;0.000;2022-11-14T05:01:50;18.20;62.20
47414;DHT22;33163;0.000;0.000;2022-11-14T05:04:17;18.20;62.30
47414;DHT22;33163;0.000;0.000;2022-11-14T05:06:44;18.10;62.30
47414;DHT22;33163;0.000;0.000;2022-11-14T05:09:10;18.20;62.30
47414;DHT22;33163;0.000;0.000;2022-11-14T05:11:37;18.10;62.10
47414;DHT22;33163;0.000;0.000;2022-11-14T05:14:05;18.20;62.20
47414;DHT22;33163;0.000;0.000;2022-11-14T05:16:32;18.10;62.30
47414;DHT22;33163;0.000;0.000;2022-11-14T05:18:59;18.10;62.30
47414;DHT22;33163;0.000;0.000;2022-11-14T05:21:25;18.10;63.20
47414;DHT22;33163;0.000;0.000;2022-11-14T05:23:52;18.10;62.70
47414;DHT22;33163;0.000;0.000;2022-11-14T05:26:19;18.10;62.10
47414;DHT22;33163;0.000;0.000;2022-11-14T05:28:45;18.20;61.90
47414;DHT22;33163;0.000;0.000;2022-11-14T05:31:14;18.20;61.80
47414;DHT22;33163;0.000;0.000;2022-11-14T05:33:42;18.30;61.80
47414;DHT22;33163;0.000;0.000;2022-11-14T05:36:12;18.30;61.90
47414;DHT22;33163;0.000;0.000;2022-11-14T05:38:39;18.30;61.90
47414;DHT22;33163;0.000;0.000;2022-11-14T05:41:06;18.30;61.90
47414;DHT22;33163;0.000;0.000;2022-11-14T05:43:33;18.30;61.90
47414;DHT22;33163;0.000;0.000;2022-11-14T05:46:01;18.30;61.90
47414;DHT22;33163;0.000;0.000;2022-11-14T05:48:30;18.30;61.90
47414;DHT22;33163;0.000;0.000;2022-11-14T05:50:58;18.30;61.40
47414;DHT22;33163;0.000;0.000;2022-11-14T05:53:27;18.30;61.30
47414;DHT22;33163;0.000;0.000;2022-11-14T05:55:54;18.30;61.30
47414;DHT22;33163;0.000;0.000;2022-11-14T05:58:21;18.30;61.30
47414;DHT22;33163;0.000;0.000;2022-11-14T06:00:48;18.40;61.40
47414;DHT22;33163;0.000;0.000;2022-11-14T06:03:14;18.40;61.40
47414;DHT22;33163;0.000;0.000;2022-11-14T06:05:42;18.30;61.40
47414;DHT22;33163;0.000;0.000;2022-11-14T06:08:09;18.30;61.40
47414;DHT22;33163;0.000;0.000;2022-11-14T06:10:36;18.30;61.40
47414;DHT22;33163;0.000;0.000;2022-11-14T06:13:03;18.30;61.40
47414;DHT22;33163;0.000;0.000;2022-11-14T06:15:29;18.30;61.40
47414;DHT22;33163;0.000;0.000;2022-11-14T06:17:56;18.30;61.10
47414;DHT22;33163;0.000;0.000;2022-11-14T06:20:23;18.30;61.20
47414;DHT22;33163;0.000;0.000;2022-11-14T06:22:54;18.30;61.20
47414;DHT22;33163;0.000;0.000;2022-11-14T06:25:20;18.30;61.20
47414;DHT22;33163;0.000;0.000;2022-11-14T06:27:47;18.30;61.30
47414;DHT22;33163;0.000;0.000;2022-11-14T06:30:14;18.30;61.40
47414;DHT22;33163;0.000;0.000;2022-11-14T06:32:41;18.30;61.00
47414;DHT22;33163;0.000;0.000;2022-11-14T06:35:08;18.30;61.40
47414;DHT22;33163;0.000;0.000;2022-11-14T06:37:35;18.20;61.40
47414;DHT22;33163;0.000;0.000;2022-11-14T06:40:05;18.20;61.50
47414;DHT22;33163;0.000;0.000;2022-11-14T06:42:31;18.20;61.60
47414;DHT22;33163;0.000;0.000;2022-11-14T06:44:58;18.20;61.60
47414;DHT22;33163;0.000;0.000;2022-11-14T06:47:25;18.20;61.60
47414;DHT22;33163;0.000;0.000;2022-11-14T06:49:52;18.20;61.80
47414;DHT22;33163;0.000;0.000;2022-11-14T06:52:18;18.30;62.00
47414;DHT22;33163;0.000;0.000;2022-11-14T06:54:46;18.30;62.10
47414;DHT22;33163;0.000;0.000;2022-11-14T06:57:14;18.30;62.20
47414;DHT22;33163;0.000;0.000;2022-11-14T06:59:41;18.30;61.90
47414;DHT22;33163;0.000;0.000;2022-11-14T07:02:10;18.30;62.00
47414;DHT22;33163;0.000;0.000;2022-11-14T07:04:37;18.30;61.90
47414;DHT22;33163;0.000;0.000;2022-11-14T07:07:04;18.40;61.80
47414;DHT22;33163;0.000;0.000;2022-11-14T07:09:31;18.40;61.40
47414;DHT22;33163;0.000;0.000;2022-11-14T07:11:57;18.50;62.00
47414;DHT22;33163;0.000;0.000;2022-11-14T07:14:25;18.50;61.20
47414;DHT22;33163;0.000;0.000;2022-11-14T07:16:53;18.50;61.00
47414;DHT22;33163;0.000;0.000;2022-11-14T07:19:23;18.50;61.20
47414;DHT22;33163;0.000;0.000;2022-11-14T07:21:49;18.50;61.10
47414;DHT22;33163;0.000;0.000;2022-11-14T07:24:16;18.50;60.80
47414;DHT22;33163;0.000;0.000;2022-11-14T07:26:44;18.50;60.70
47414;DHT22;33163;0.000;0.000;2022-11-14T07:29:11;18.50;60.50
47414;DHT22;33163;0.000;0.000;2022-11-14T07:31:39;18.50;60.40
47414;DHT22;33163;0.000;0.000;2022-11-14T07:34:07;18.60;60.40
47414;DHT22;33163;0.000;0.000;2022-11-14T07:36:33;18.60;60.30
47414;DHT22;33163;0.000;0.000;2022-11-14T07:39:00;18.60;60.40
47414;DHT22;33163;0.000;0.000;2022-11-14T07:41:27;18.60;60.30
47414;DHT22;33163;0.000;0.000;2022-11-14T07:43:54;18.60;60.20
47414;DHT22;33163;0.000;0.000;2022-11-14T07:46:21;18.60;60.20
47414;DHT22;33163;0.000;0.000;2022-11-14T07:48:49;18.60;60.00
47414;DHT22;33163;0.000;0.000;2022-11-14T07:51:17;18.60;60.00
47414;DHT22;33163;0.000;0.000;2022-11-14T07:53:45;18.60;59.60
47414;DHT22;33163;0.000;0.000;2022-11-14T07:56:12;18.60;59.50
47414;DHT22;33163;0.000;0.000;2022-11-14T07:58:40;18.70;59.50
47414;DHT22;33163;0.000;0.000;2022-11-14T08:01:09;18.70;59.10
47414;DHT22;33163;0.000;0.000;2022-11-14T08:03:37;18.80;59.10
47414;DHT22;33163;0.000;0.000;2022-11-14T08:06:06;18.80;59.00
47414;DHT22;33163;0.000;0.000;2022-11-14T08:08:34;18.90;58.80
47414;DHT22;33163;0.000;0.000;2022-11-14T08:11:01;18.90;58.80
47414;DHT22;33163;0.000;0.000;2022-11-14T08:13:29;18.90;58.60
47414;DHT22;33163;0.000;0.000;2022-11-14T08:15:56;18.90;58.50
47414;DHT22;33163;0.000;0.000;2022-11-14T08:18:24;18.90;58.60
47414;DHT22;33163;0.000;0.000;2022-11-14T08:20:51;18.90;58.70
47414;DHT22;33163;0.000;0.000;2022-11-14T08:23:20;18.90;58.70
47414;DHT22;33163;0.000;0.000;2022-11-14T08:25:46;18.90;58.80
47414;DHT22;33163;0.000;0.000;2022-11-14T08:28:13;18.90;58.80
47414;DHT22;33163;0.000;0.000;2022-11-14T08:30:40;18.90;59.00
47414;DHT22;33163;0.000;0.000;2022-11-14T08:33:07;18.80;59.10
47414;DHT22;33163;0.000;0.000;2022-11-14T08:35:33;18.80;59.20
47414;DHT22;33163;0.000;0.000;2022-11-14T08:38:00;18.80;59.30
47414;DHT22;33163;0.000;0.000;2022-11-14T08:40:29;18.70;59.20
47414;DHT22;33163;0.000;0.000;2022-11-14T08:42:59;18.80;59.20
47414;DHT22;33163;0.000;0.000;2022-11-14T08:45:27;18.80;59.20
47414;DHT22;33163;0.000;0.000;2022-11-14T08:47:54;18.80;58.80
47414;DHT22;33163;0.000;0.000;2022-11-14T08:50:21;18.80;58.70
47414;DHT22;33163;0.000;0.000;2022-11-14T08:52:51;18.90;58.90
47414;DHT22;33163;0.000;0.000;2022-11-14T08:55:17;18.90;58.60
47414;DHT22;33163;0.000;0.000;2022-11-14T08:57:46;18.90;58.70
47414;DHT22;33163;0.000;0.000;2022-11-14T09:00:14;19.00;58.70
47414;DHT22;33163;0.000;0.000;2022-11-14T09:02:41;19.00;58.80
47414;DHT22;33163;0.000;0.000;2022-11-14T09:05:08;18.90;58.70
47414;DHT22;33163;0.000;0.000;2022-11-14T09:07:34;18.90;58.70
47414;DHT22;33163;0.000;0.000;2022-11-14T09:10:02;19.00;58.90
47414;DHT22;33163;0.000;0.000;2022-11-14T09:12:29;19.00;59.10
47414;DHT22;33163;0.000;0.000;2022-11-14T09:14:57;19.00;59.40
47414;DHT22;33163;0.000;0.000;2022-11-14T09:17:24;19.00;59.20
47414;DHT22;33163;0.000;0.000;2022-11-14T09:19:50;19.00;59.40
47414;DHT22;33163;0.000;0.000;2022-11-14T09:22:17;19.00;59.60
47414;DHT22;33163;0.000;0.000;2022-11-14T09:24:44;19.10;59.70
47414;DHT22;33163;0.000;0.000;2022-11-14T09:27:13;19.10;60.00
47414;DHT22;33163;0.000;0.000;2022-11-14T09:29:40;19.30;60.00
47414;DHT22;33163;0.000;0.000;2022-11-14T09:32:08;19.40;59.80
47414;DHT22;33163;0.000;0.000;2022-11-14T09:34:35;19.50;59.90
47414;DHT22;33163;0.000;0.000;2022-11-14T09:37:02;19.50;60.00
47414;DHT22;33163;0.000;0.000;2022-11-14T09:39:28;19.40;59.90
47414;DHT22;33163;0.000;0.000;2022-11-14T09:42:08;19.40;60.00
47414;DHT22;33163;0.000;0.000;2022-11-14T09:44:45;19.30;60.10
47414;DHT22;33163;0.000;0.000;2022-11-14T09:47:18;19.40;60.70
47414;DHT22;33163;0.000;0.000;2022-11-14T09:49:49;19.40;60.70
47414;DHT22;33163;0.000;0.000;2022-11-14T09:52:26;19.50;60.80
47414;DHT22;33163;0.000;0.000;2022-11-14T09:54:56;19.50;60.40
47414;DHT22;33163;0.000;0.000;2022-11-14T09:57:24;19.40;60.60
47414;DHT22;33163;0.000;0.000;2022-11-14T09:59:51;19.30;60.70
47414;DHT22;33163;0.000;0.000;2022-11-14T10:02:32;19.30;61.00
47414;DHT22;33163;0.000;0.000;2022-11-14T10:05:09;19.30;61.10
47414;DHT22;33163;0.000;0.000;2022-11-14T10:07:48;19.30;61.20
47414;DHT22;33163;0.000;0.000;2022-11-14T10:10:28;19.30;61.40
47414;DHT22;33163;0.000;0.000;2022-11-14T10:13:04;19.30;61.30
47414;DHT22;33163;0.000;0.000;2022-11-14T10:15:36;19.40;61.40
47414;DHT22;33163;0.000;0.000;2022-11-14T10:18:32;19.40;61.30
47414;DHT22;33163;0.000;0.000;2022-11-14T10:21:08;19.40;61.40
47414;DHT22;33163;0.000;0.000;2022-11-14T10:23:46;19.40;61.50
47414;DHT22;33163;0.000;0.000;2022-11-14T10:26:25;19.50;61.60
47414;DHT22;33163;0.000;0.000;2022-11-14T10:29:16;19.50;61.60
47414;DHT22;33163;0.000;0.000;2022-11-14T10:31:55;19.50;61.60
47414;DHT22;33163;0.000;0.000;2022-11-14T10:34:27;19.60;61.70
47414;DHT22;33163;0.000;0.000;2022-11-14T10:37:01;19.60;61.70
47414;DHT22;33163;0.000;0.000;2022-11-14T10:39:35;19.60;61.60
47414;DHT22;33163;0.000;0.000;2022-11-14T10:42:10;19.60;61.60
47414;DHT22;33163;0.000;0.000;2022-11-14T10:44:47;19.70;61.60
47414;DHT22;33163;0.000;0.000;2022-11-14T10:47:19;19.70;61.70
47414;DHT22;33163;0.000;0.000;2022-11-14T10:49:52;19.70;61.80
47414;DHT22;33163;0.000;0.000;2022-11-14T10:52:25;19.70;61.80
47414;DHT22;33163;0.000;0.000;2022-11-14T10:54:59;19.80;61.90
47414;DHT22;33163;0.000;0.000;2022-11-14T10:57:29;19.80;61.90
47414;DHT22;33163;0.000;0.000;2022-11-14T10:59:56;19.80;61.90
47414;DHT22;33163;0.000;0.000;2022-11-14T11:02:22;19.80;62.60
47414;DHT22;33163;0.000;0.000;2022-11-14T11:04:50;19.80;62.10
47414;DHT22;33163;0.000;0.000;2022-11-14T11:07:22;19.80;62.00
47414;DHT22;33163;0.000;0.000;2022-11-14T11:10:10;19.80;62.00
47414;DHT22;33163;0.000;0.000;2022-11-14T11:13:02;19.80;62.10
47414;DHT22;33163;0.000;0.000;2022-11-14T11:15:29;19.80;62.10
47414;DHT22;33163;0.000;0.000;2022-11-14T11:17:58;19.80;62.10
47414;DHT22;33163;0.000;0.000;2022-11-14T11:20:32;19.90;62.20
47414;DHT22;33163;0.000;0.000;2022-11-14T11:23:03;19.90;62.20
47414;DHT22;33163;0.000;0.000;2022-11-14T11:25:32;19.90;62.30
47414;DHT22;33163;0.000;0.000;2022-11-14T11:28:11;19.90;62.20
47414;DHT22;33163;0.000;0.000;2022-11-14T11:30:39;19.90;62.30
47414;DHT22;33163;0.000;0.000;2022-11-14T11:33:16;19.90;62.30
47414;DHT22;33163;0.000;0.000;2022-11-14T11:35:50;19.90;62.30
47414;DHT22;33163;0.000;0.000;2022-11-14T11:38:19;19.90;62.30
47414;DHT22;33163;0.000;0.000;2022-11-14T11:40:49;19.90;62.30
47414;DHT22;33163;0.000;0.000;2022-11-14T11:43:25;20.00;62.40
47414;DHT22;33163;0.000;0.000;2022-11-14T11:45:55;20.00;62.50
47414;DHT22;33163;0.000;0.000;2022-11-14T11:48:26;20.00;62.40
47414;DHT22;33163;0.000;0.000;2022-11-14T11:50:56;20.00;62.40
47414;DHT22;33163;0.000;0.000;2022-11-14T11:53:27;20.00;62.40
47414;DHT22;33163;0.000;0.000;2022-11-14T11:55:59;20.00;62.30
47414;DHT22;33163;0.000;0.000;2022-11-14T11:58:29;20.00;62.40
47414;DHT22;33163;0.000;0.000;2022-11-14T12:00:58;20.10;62.40
47414;DHT22;33163;0.000;0.000;2022-11-14T12:03:25;20.10;62.40
47414;DHT22;33163;0.000;0.000;2022-11-14T12:06:01;20.10;62.40
47414;DHT22;33163;0.000;0.000;2022-11-14T12:08:35;20.10;62.40
47414;DHT22;33163;0.000;0.000;2022-11-14T12:11:04;20.10;62.40
47414;DHT22;33163;0.000;0.000;2022-11-14T12:17:03;20.10;62.40
47414;DHT22;33163;0.000;0.000;2022-11-14T12:20:02;20.10;62.40
47414;DHT22;33163;0.000;0.000;2022-11-14T12:22:54;20.10;62.30
47414;DHT22;33163;0.000;0.000;2022-11-14T12:25:59;20.10;62.50
47414;DHT22;33163;0.000;0.000;2022-11-14T12:28:40;20.20;62.40
47414;DHT22;33163;0.000;0.000;2022-11-14T12:31:12;20.10;62.30
47414;DHT22;33163;0.000;0.000;2022-11-14T12:33:43;20.10;62.30
47414;DHT22;33163;0.000;0.000;2022-11-14T12:36:12;20.20;62.40
47414;DHT22;33163;0.000;0.000;2022-11-14T12:38:45;20.20;62.40
47414;DHT22;33163;0.000;0.000;2022-11-14T12:41:25;20.20;62.30
47414;DHT22;33163;0.000;0.000;2022-11-14T12:43:53;20.20;62.20
47414;DHT22;33163;0.000;0.000;2022-11-14T12:50:04;20.10;62.00
47414;DHT22;33163;0.000;0.000;2022-11-14T12:52:45;20.20;62.10
47414;DHT22;33163;0.000;0.000;2022-11-14T13:01:15;20.20;62.30
47414;DHT22;33163;0.000;0.000;2022-11-14T13:03:51;20.10;62.20
47414;DHT22;33163;0.000;0.000;2022-11-14T13:06:24;20.10;62.20
47414;DHT22;33163;0.000;0.000;2022-11-14T13:09:09;20.10;62.20
47414;DHT22;33163;0.000;0.000;2022-11-14T13:11:41;20.10;62.20
47414;DHT22;33163;0.000;0.000;2022-11-14T13:14:28;20.10;62.20
47414;DHT22;33163;0.000;0.000;2022-11-14T13:17:24;20.10;62.20
47414;DHT22;33163;0.000;0.000;2022-11-14T13:20:26;20.10;62.20
47414;DHT22;33163;0.000;0.000;2022-11-14T13:26:37;20.10;62.30
47414;DHT22;33163;0.000;0.000;2022-11-14T13:29:04;20.00;62.20
47414;DHT22;33163;0.000;0.000;2022-11-14T13:31:48;20.00;62.20
47414;DHT22;33163;0.000;0.000;2022-11-14T13:34:39;20.00;62.30
47414;DHT22;33163;0.000;0.000;2022-11-14T13:37:18;20.00;62.30
47414;DHT22;33163;0.000;0.000;2022-11-14T13:39:58;20.00;62.40
47414;DHT22;33163;0.000;0.000;2022-11-14T13:42:44;20.00;62.40
47414;DHT22;33163;0.000;0.000;2022-11-14T13:45:30;19.90;62.40
47414;DHT22;33163;0.000;0.000;2022-11-14T13:48:29;19.90;62.50
47414;DHT22;33163;0.000;0.000;2022-11-14T13:51:00;19.90;62.60
47414;DHT22;33163;0.000;0.000;2022-11-14T13:53:30;19.90;62.60
47414;DHT22;33163;0.000;0.000;2022-11-14T13:56:03;19.80;62.60
47414;DHT22;33163;0.000;0.000;2022-11-14T14:01:29;19.80;62.70
47414;DHT22;33163;0.000;0.000;2022-11-14T14:04:12;19.80;62.70
47414;DHT22;33163;0.000;0.000;2022-11-14T14:06:52;19.80;62.70
47414;DHT22;33163;0.000;0.000;2022-11-14T14:09:26;19.80;62.70
47414;DHT22;33163;0.000;0.000;2022-11-14T14:12:06;19.80;62.70
47414;DHT22;33163;0.000;0.000;2022-11-14T14:14:50;19.80;62.70
47414;DHT22;33163;0.000;0.000;2022-11-14T14:17:26;19.70;62.60
47414;DHT22;33163;0.000;0.000;2022-11-14T14:20:04;19.70;62.40
47414;DHT22;33163;0.000;0.000;2022-11-14T14:22:39;19.70;63.00
47414;DHT22;33163;0.000;0.000;2022-11-14T14:25:17;19.70;62.50
47414;DHT22;33163;0.000;0.000;2022-11-14T14:27:54;19.70;62.30
47414;DHT22;33163;0.000;0.000;2022-11-14T14:30:23;19.60;62.30
47414;DHT22;33163;0.000;0.000;2022-11-14T14:33:09;19.60;62.20
47414;DHT22;33163;0.000;0.000;2022-11-14T14:35:38;19.60;62.20
47414;DHT22;33163;0.000;0.000;2022-11-14T14:38:11;19.60;62.20
47414;DHT22;33163;0.000;0.000;2022-11-14T14:40:39;19.60;62.30
47414;DHT22;33163;0.000;0.000;2022-11-14T14:43:13;19.50;62.40
47414;DHT22;33163;0.000;0.000;2022-11-14T14:45:50;19.60;62.30
47414;DHT22;33163;0.000;0.000;2022-11-14T14:48:22;19.50;62.30
47414;DHT22;33163;0.000;0.000;2022-11-14T14:50:52;19.50;62.40
47414;DHT22;33163;0.000;0.000;2022-11-14T14:53:21;19.50;62.30
47414;DHT22;33163;0.000;0.000;2022-11-14T14:55:53;19.50;62.40
47414;DHT22;33163;0.000;0.000;2022-11-14T14:58:25;19.50;62.20
47414;DHT22;33163;0.000;0.000;2022-11-14T15:00:57;19.40;62.30
47414;DHT22;33163;0.000;0.000;2022-11-14T15:03:27;19.40;62.10
47414;DHT22;33163;0.000;0.000;2022-11-14T15:06:05;19.40;62.20
47414;DHT22;33163;0.000;0.000;2022-11-14T15:08:36;19.40;62.10
47414;DHT22;33163;0.000;0.000;2022-11-14T15:11:03;19.40;62.10
47414;DHT22;33163;0.000;0.000;2022-11-14T15:13:32;19.40;62.20
47414;DHT22;33163;0.000;0.000;2022-11-14T15:15:59;19.40;62.20
47414;DHT22;33163;0.000;0.000;2022-11-14T15:18:30;19.30;62.30
47414;DHT22;33163;0.000;0.000;2022-11-14T15:21:09;19.30;62.20
47414;DHT22;33163;0.000;0.000;2022-11-14T15:23:37;19.30;62.20
47414;DHT22;33163;0.000;0.000;2022-11-14T15:26:11;19.30;62.30
47414;DHT22;33163;0.000;0.000;2022-11-14T15:28:38;19.30;62.30
47414;DHT22;33163;0.000;0.000;2022-11-14T15:31:05;19.30;62.30
47414;DHT22;33163;0.000;0.000;2022-11-14T15:33:33;19.30;62.20
47414;DHT22;33163;0.000;0.000;2022-11-14T15:36:05;19.30;62.20
47414;DHT22;33163;0.000;0.000;2022-11-14T15:38:34;19.30;62.40
47414;DHT22;33163;0.000;0.000;2022-11-14T15:41:21;19.30;62.30
47414;DHT22;33163;0.000;0.000;2022-11-14T15:43:50;19.30;62.40
47414;DHT22;33163;0.000;0.000;2022-11-14T15:46:26;19.20;62.50
47414;DHT22;33163;0.000;0.000;2022-11-14T15:48:53;19.20;62.50
47414;DHT22;33163;0.000;0.000;2022-11-14T15:51:41;19.20;62.40
47414;DHT22;33163;0.000;0.000;2022-11-14T15:54:25;19.20;62.30
47414;DHT22;33163;0.000;0.000;2022-11-14T15:56:55;19.20;62.00
47414;DHT22;33163;0.000;0.000;2022-11-14T15:59:22;19.20;62.10
47414;DHT22;33163;0.000;0.000;2022-11-14T16:01:51;19.20;62.20
47414;DHT22;33163;0.000;0.000;2022-11-14T16:04:19;19.20;62.20
47414;DHT22;33163;0.000;0.000;2022-11-14T16:06:47;19.20;62.30
47414;DHT22;33163;0.000;0.000;2022-11-14T16:09:15;19.10;62.10
47414;DHT22;33163;0.000;0.000;2022-11-14T16:11:44;19.20;62.40
47414;DHT22;33163;0.000;0.000;2022-11-14T16:14:11;19.20;62.50
47414;DHT22;33163;0.000;0.000;2022-11-14T16:16:38;19.30;61.60
47414;DHT22;33163;0.000;0.000;2022-11-14T16:19:05;19.40;61.40
47414;DHT22;33163;0.000;0.000;2022-11-14T16:21:33;19.40;61.30
47414;DHT22;33163;0.000;0.000;2022-11-14T16:23:59;19.50;61.10